createdAt,value
2022-11-06T00:10:21.253Z,10.57
2022-11-06T00:22:21.198Z,10.54
2022-11-06T00:34:21.196Z,10.54
2022-11-06T00:46:21.301Z,10.54
2022-11-06T00:58:21.311Z,10.53
2022-11-06T01:10:21.265Z,10.53
2022-11-06T01:22:21.187Z,10.50
2022-11-06T01:34:21.384Z,10.51
2022-11-06T01:46:21.277Z,10.49
2022-11-06T01:58:21.241Z,10.49
2022-11-06T02:10:21.279Z,10.48
2022-11-06T02:22:21.190Z,10.46
2022-11-06T02:34:21.282Z,10.46
2022-11-06T02:46:21.254Z,10.44
2022-11-06T02:58:21.258Z,10.44
2022-11-06T03:10:21.276Z,10.44
2022-11-06T03:22:21.194Z,10.42
2022-11-06T03:34:21.229Z,10.42
2022-11-06T03:46:21.293Z,10.40
2022-11-06T03:58:21.377Z,10.38
2022-11-06T04:10:21.183Z,10.37
2022-11-06T04:22:21.296Z,10.37
2022-11-06T04:34:21.303Z,10.37
2022-11-06T04:46:21.232Z,10.34
2022-11-06T04:58:21.192Z,10.35
2022-11-06T05:10:21.247Z,10.34
2022-11-06T05:22:21.185Z,10.32
2022-11-06T05:34:21.327Z,10.31
2022-11-06T05:46:46.920Z,10.32
2022-11-06T05:58:21.196Z,10.30
2022-11-06T06:10:21.303Z,10.29
2022-11-06T06:22:21.183Z,10.28
2022-11-06T06:34:21.203Z,10.29
2022-11-06T06:46:21.309Z,10.27
2022-11-06T06:58:21.677Z,10.43
2022-11-06T07:10:21.192Z,10.50
2022-11-06T07:22:29.546Z,10.51
2022-11-06T07:34:21.242Z,10.51
2022-11-06T07:46:21.191Z,10.45
2022-11-06T07:58:21.309Z,10.45
2022-11-06T08:10:21.288Z,10.44
2022-11-06T08:22:21.282Z,10.42
2022-11-06T08:34:21.306Z,10.44
2022-11-06T08:46:21.271Z,10.45
2022-11-06T08:58:21.197Z,10.86
2022-11-06T09:10:21.289Z,10.96
2022-11-06T09:22:21.259Z,11.05
2022-11-06T09:34:21.311Z,11.07
2022-11-06T09:46:21.287Z,11.10
2022-11-06T09:58:21.345Z,11.18
2022-11-06T10:10:21.187Z,11.26
2022-11-06T10:22:21.741Z,11.36
2022-11-06T10:34:21.251Z,11.49
2022-11-06T10:46:21.308Z,11.60
2022-11-06T10:58:21.327Z,11.47
2022-11-06T11:10:21.294Z,11.47
2022-11-06T11:22:21.196Z,11.46
2022-11-06T11:34:21.313Z,11.52
2022-11-06T11:46:21.242Z,11.53
2022-11-06T11:58:21.238Z,11.56
2022-11-06T12:10:21.325Z,11.69
2022-11-06T12:22:21.188Z,11.71
2022-11-06T12:34:21.195Z,11.71
2022-11-06T12:46:21.242Z,11.72
2022-11-06T12:58:21.205Z,11.72
2022-11-06T13:10:21.301Z,11.71
2022-11-06T13:22:21.286Z,11.70
2022-11-06T13:34:21.206Z,11.69
2022-11-06T13:46:21.207Z,11.68
2022-11-06T13:58:21.198Z,11.67
2022-11-06T14:10:21.286Z,11.66
2022-11-06T14:22:21.254Z,11.66
2022-11-06T14:34:21.218Z,11.65
2022-11-06T14:46:22.598Z,11.64
2022-11-06T14:58:21.299Z,11.61
2022-11-06T15:10:21.261Z,11.61
2022-11-06T15:22:21.281Z,11.59
2022-11-06T15:34:21.197Z,11.59
2022-11-06T15:46:21.298Z,11.59
2022-11-06T15:58:21.269Z,11.57
2022-11-06T16:10:21.196Z,11.54
2022-11-06T16:22:21.317Z,11.53
2022-11-06T16:34:21.248Z,11.52
2022-11-06T16:46:21.278Z,11.51
2022-11-06T16:58:21.313Z,11.50
2022-11-06T17:10:21.300Z,11.51
2022-11-06T17:22:21.211Z,11.48
2022-11-06T17:34:21.201Z,11.47
2022-11-06T17:46:21.307Z,11.47
2022-11-06T17:58:21.194Z,11.46
2022-11-06T18:10:22.888Z,11.45
2022-11-06T18:22:21.297Z,11.42
2022-11-06T18:34:21.493Z,11.42
2022-11-06T18:46:21.309Z,11.42
2022-11-06T18:58:21.273Z,11.41
2022-11-06T19:10:21.217Z,11.40
2022-11-06T19:22:21.188Z,11.38
2022-11-06T19:34:21.297Z,11.36
2022-11-06T19:46:25.100Z,11.35
2022-11-06T19:58:21.197Z,11.34
2022-11-06T20:10:21.313Z,11.34
2022-11-06T20:22:21.196Z,11.32
2022-11-06T20:34:21.256Z,11.31
2022-11-06T20:46:21.295Z,11.31
2022-11-06T20:58:21.280Z,11.31
2022-11-06T21:10:21.239Z,11.29
2022-11-06T21:22:21.279Z,11.27
2022-11-06T21:34:21.202Z,11.26
2022-11-06T21:46:21.271Z,11.25
2022-11-06T21:58:21.291Z,11.25
2022-11-06T22:10:21.188Z,11.24
2022-11-06T22:22:21.194Z,11.21
2022-11-06T22:34:21.293Z,11.20
2022-11-06T22:46:21.255Z,11.18
2022-11-06T22:58:21.295Z,11.18
2022-11-06T23:10:21.301Z,11.17
2022-11-06T23:22:21.285Z,11.15
2022-11-06T23:34:21.253Z,11.14
2022-11-06T23:46:21.297Z,11.12
2022-11-06T23:58:21.312Z,11.12
